createdAt,value
2022-09-15T00:00:16.569Z,96647.53
2022-09-15T00:02:24.763Z,96636.44
2022-09-15T00:04:32.689Z,96641.63
2022-09-15T00:06:40.460Z,96642.50
2022-09-15T00:08:50.824Z,96631.91
2022-09-15T00:11:01.395Z,96639.13
2022-09-15T00:13:09.145Z,96634.91
2022-09-15T00:15:18.157Z,96629.53
2022-09-15T00:17:25.974Z,96632.22
2022-09-15T00:19:33.769Z,96631.25
2022-09-15T00:21:44.044Z,96623.38
2022-09-15T00:23:55.132Z,96631.41
2022-09-15T00:26:03.357Z,96628.88
2022-09-15T00:28:11.467Z,96630.75
2022-09-15T00:30:21.540Z,96632.59
2022-09-15T00:32:29.619Z,96626.19
2022-09-15T00:34:37.394Z,96629.22
2022-09-15T00:36:45.167Z,96628.22
2022-09-15T00:38:56.242Z,96629.25
2022-09-15T00:41:04.723Z,96628.91
2022-09-15T00:43:15.488Z,96626.72
2022-09-15T00:45:25.416Z,96631.09
2022-09-15T00:47:36.850Z,96629.06
2022-09-15T00:49:47.859Z,96621.34
2022-09-15T00:52:07.055Z,96629.22
2022-09-15T00:54:22.294Z,96620.34
2022-09-15T00:56:33.624Z,96625.38
2022-09-15T00:58:48.386Z,96622.53
2022-09-15T01:01:01.376Z,96624.19
2022-09-15T01:03:09.312Z,96627.56
2022-09-15T01:05:23.952Z,96623.34
2022-09-15T01:07:37.461Z,96632.59
2022-09-15T01:09:55.486Z,96635.78
2022-09-15T01:12:05.438Z,96630.91
2022-09-15T01:14:13.922Z,96630.59
2022-09-15T01:16:27.175Z,96631.59
2022-09-15T01:18:45.122Z,96630.41
2022-09-15T01:21:06.970Z,96636.63
2022-09-15T01:23:58.763Z,96632.78
2022-09-15T01:26:39.404Z,96630.75
2022-09-15T01:29:11.729Z,96625.88
2022-09-15T01:31:27.656Z,96619.69
2022-09-15T01:33:39.167Z,96620.84
2022-09-15T01:36:04.299Z,96618.84
2022-09-15T01:38:18.952Z,96619.31
2022-09-15T01:40:29.836Z,96616.63
2022-09-15T01:42:39.846Z,96627.22
2022-09-15T01:44:51.090Z,96620.50
2022-09-15T01:47:05.200Z,96619.84
2022-09-15T01:49:15.733Z,96619.00
2022-09-15T01:51:25.809Z,96622.34
2022-09-15T01:53:39.643Z,96637.13
2022-09-15T01:55:55.603Z,96631.44
2022-09-15T01:58:03.506Z,96634.44
2022-09-15T02:00:14.466Z,96631.75
2022-09-15T02:02:32.008Z,96627.06
2022-09-15T02:04:47.166Z,96622.16
2022-09-15T02:07:02.551Z,96631.41
2022-09-15T02:09:16.005Z,96633.41
2022-09-15T02:11:28.266Z,96628.72
2022-09-15T02:13:48.843Z,96629.72
2022-09-15T02:16:00.936Z,96628.41
2022-09-15T02:18:15.247Z,96624.19
2022-09-15T02:20:31.832Z,96622.16
2022-09-15T02:22:43.248Z,96620.69
2022-09-15T02:24:57.112Z,96618.31
2022-09-15T02:27:07.421Z,96628.09
2022-09-15T02:29:19.727Z,96620.03
2022-09-15T02:31:29.664Z,96618.31
2022-09-15T02:33:46.966Z,96620.84
2022-09-15T02:35:57.968Z,96624.72
2022-09-15T02:38:10.011Z,96620.69
2022-09-15T02:40:17.855Z,96626.56
2022-09-15T02:42:27.445Z,96627.59
2022-09-15T02:44:35.368Z,96637.28
2022-09-15T02:46:43.164Z,96629.94
2022-09-15T02:48:54.037Z,96635.66
2022-09-15T02:51:01.807Z,96631.13
2022-09-15T02:53:11.131Z,96635.28
2022-09-15T02:55:19.278Z,96638.81
2022-09-15T02:57:26.977Z,96633.94
2022-09-15T02:59:54.703Z,96635.97
2022-09-15T03:02:05.718Z,96629.94
2022-09-15T03:04:16.179Z,96636.66
2022-09-15T03:06:24.459Z,96636.66
2022-09-15T03:08:32.159Z,96643.19
2022-09-15T03:10:39.860Z,96639.66
2022-09-15T03:12:49.700Z,96641.50
2022-09-15T03:15:01.236Z,96634.09
2022-09-15T03:17:09.111Z,96635.81
2022-09-15T03:19:20.974Z,96620.50
2022-09-15T03:21:30.212Z,96622.72
2022-09-15T03:23:38.301Z,96629.75
2022-09-15T03:25:48.422Z,96632.91
2022-09-15T03:27:56.273Z,96619.31
2022-09-15T03:30:04.402Z,96620.69
2022-09-15T03:32:16.849Z,96637.47
2022-09-15T03:34:27.181Z,96635.59
2022-09-15T03:36:34.973Z,96636.44
2022-09-15T03:38:42.996Z,96628.03
2022-09-15T03:41:01.684Z,96631.25
2022-09-15T03:43:09.648Z,96639.31
2022-09-15T03:45:20.107Z,96640.81
2022-09-15T03:47:27.805Z,96631.44
2022-09-15T03:49:38.952Z,96640.97
2022-09-15T03:51:47.974Z,96634.63
2022-09-15T03:53:56.206Z,96629.41
2022-09-15T03:56:16.750Z,96635.97
2022-09-15T03:58:30.523Z,96646.53
2022-09-15T04:00:39.048Z,96637.16
2022-09-15T04:02:47.620Z,96648.22
2022-09-15T04:05:05.559Z,96635.97
2022-09-15T04:07:13.722Z,96633.78
2022-09-15T04:09:22.136Z,96636.13
2022-09-15T04:11:29.959Z,96628.94
2022-09-15T04:13:37.776Z,96630.94
2022-09-15T04:15:45.512Z,96637.31
2022-09-15T04:17:53.694Z,96637.47
2022-09-15T04:20:04.443Z,96631.13
2022-09-15T04:22:17.819Z,96629.41
2022-09-15T04:24:26.144Z,96623.69
2022-09-15T04:26:35.747Z,96630.78
2022-09-15T04:28:43.617Z,96625.22
2022-09-15T04:30:51.377Z,96626.38
2022-09-15T04:33:00.742Z,96623.84
2022-09-15T04:35:12.881Z,96619.84
2022-09-15T04:37:21.046Z,96621.69
2022-09-15T04:39:29.162Z,96629.59
2022-09-15T04:41:36.946Z,96630.28
2022-09-15T04:43:45.661Z,96629.94
2022-09-15T04:45:56.786Z,96625.88
2022-09-15T04:48:08.034Z,96629.94
2022-09-15T04:50:18.505Z,96628.22
2022-09-15T04:52:26.476Z,96633.94
2022-09-15T04:54:36.861Z,96637.97
2022-09-15T04:56:47.406Z,96636.47
2022-09-15T04:59:02.409Z,96643.69
2022-09-15T05:01:13.447Z,96645.53
2022-09-15T05:03:23.580Z,96650.91
2022-09-15T05:05:41.337Z,96654.94
2022-09-15T05:07:51.275Z,96649.75
2022-09-15T05:10:15.649Z,96656.97
2022-09-15T05:12:23.482Z,96652.59
2022-09-15T05:14:31.556Z,96653.09
2022-09-15T05:16:40.202Z,96669.06
2022-09-15T05:18:53.254Z,96660.81
2022-09-15T05:21:08.536Z,96655.63
2022-09-15T05:23:18.929Z,96662.53
2022-09-15T05:25:26.677Z,96652.28
2022-09-15T05:27:36.432Z,96664.34
2022-09-15T05:29:44.247Z,96665.53
2022-09-15T05:31:52.270Z,96659.50
2022-09-15T05:34:02.419Z,96661.81
2022-09-15T05:36:15.283Z,96668.88
2022-09-15T05:38:24.185Z,96665.88
2022-09-15T05:40:32.359Z,96665.00
2022-09-15T05:42:40.519Z,96673.06
2022-09-15T05:44:49.287Z,96670.03
2022-09-15T05:46:59.754Z,96659.31
2022-09-15T05:49:08.896Z,96671.25
2022-09-15T05:51:19.342Z,96660.66
2022-09-15T05:53:28.377Z,96662.16
2022-09-15T05:55:40.964Z,96669.41
2022-09-15T05:57:50.996Z,96665.38
2022-09-15T06:00:00.325Z,96660.31
2022-09-15T06:02:08.529Z,96666.53
2022-09-15T06:04:18.592Z,96657.63
2022-09-15T06:06:29.641Z,96659.31
2022-09-15T06:08:43.914Z,96648.22
2022-09-15T06:10:52.312Z,96639.34
2022-09-15T06:13:00.301Z,96645.38
2022-09-15T06:15:10.359Z,96650.06
2022-09-15T06:17:18.353Z,96659.97
2022-09-15T06:19:26.453Z,96662.34
2022-09-15T06:21:37.243Z,96665.50
2022-09-15T06:23:50.553Z,96669.03
2022-09-15T06:25:59.802Z,96654.75
2022-09-15T06:28:07.680Z,96663.66
2022-09-15T06:30:19.239Z,96664.00
2022-09-15T06:32:27.325Z,96663.00
2022-09-15T06:34:35.767Z,96662.31
2022-09-15T06:36:48.886Z,96665.19
2022-09-15T06:38:58.540Z,96669.03
2022-09-15T06:41:06.334Z,96664.50
2022-09-15T06:43:17.262Z,96656.97
2022-09-15T06:45:25.515Z,96664.34
2022-09-15T06:47:34.241Z,96651.91
2022-09-15T06:49:42.126Z,96674.91
2022-09-15T06:51:52.790Z,96671.41
2022-09-15T06:54:00.689Z,96672.41
2022-09-15T06:56:10.368Z,96674.59
2022-09-15T06:58:18.523Z,96666.38
2022-09-15T07:00:26.596Z,96673.59
2022-09-15T07:02:34.839Z,96675.09
2022-09-15T07:04:45.410Z,96690.41
2022-09-15T07:06:55.955Z,96690.75
2022-09-15T07:09:04.984Z,96698.97
2022-09-15T07:11:15.075Z,96686.19
2022-09-15T07:13:22.883Z,96696.75
2022-09-15T07:15:31.705Z,96697.94
2022-09-15T07:17:39.550Z,96692.91
2022-09-15T07:19:47.680Z,96695.91
2022-09-15T07:21:59.258Z,96703.84
2022-09-15T07:24:07.874Z,96695.56
2022-09-15T07:26:17.446Z,96698.59
2022-09-15T07:28:26.845Z,96701.13
2022-09-15T07:30:35.145Z,96706.84
2022-09-15T07:32:46.161Z,96703.13
2022-09-15T07:34:58.258Z,96711.38
2022-09-15T07:37:10.176Z,96705.31
2022-09-15T07:39:17.943Z,96707.66
2022-09-15T07:41:28.667Z,96709.13
2022-09-15T07:43:38.894Z,96712.38
2022-09-15T07:45:46.913Z,96724.09
2022-09-15T07:47:56.227Z,96717.16
2022-09-15T07:50:06.578Z,96730.63
2022-09-15T07:52:17.152Z,96741.41
2022-09-15T07:54:25.385Z,96728.44
2022-09-15T07:56:33.498Z,96726.09
2022-09-15T07:58:41.289Z,96732.13
2022-09-15T08:00:52.007Z,96730.47
2022-09-15T08:03:01.282Z,96734.03
2022-09-15T08:05:17.737Z,96728.66
2022-09-15T08:07:30.751Z,96725.81
2022-09-15T08:09:40.353Z,96723.97
2022-09-15T08:11:49.020Z,96719.28
2022-09-15T08:13:56.927Z,96720.63
2022-09-15T08:16:09.349Z,96732.91
2022-09-15T08:18:17.232Z,96732.88
2022-09-15T08:20:25.014Z,96722.81
2022-09-15T08:22:36.208Z,96722.13
2022-09-15T08:24:46.394Z,96721.81
2022-09-15T08:26:54.559Z,96722.81
2022-09-15T08:29:02.377Z,96724.31
2022-09-15T08:31:12.178Z,96726.84
2022-09-15T08:33:19.926Z,96732.03
2022-09-15T08:35:28.384Z,96740.78
2022-09-15T08:37:38.774Z,96736.56
2022-09-15T08:39:47.338Z,96732.38
2022-09-15T08:41:57.424Z,96733.38
2022-09-15T08:44:16.116Z,96741.31
2022-09-15T08:46:30.389Z,96740.63
2022-09-15T08:48:44.263Z,96736.88
2022-09-15T08:50:55.068Z,96745.13
2022-09-15T08:53:16.241Z,96738.91
2022-09-15T08:55:35.130Z,96741.91
2022-09-15T08:57:43.544Z,96751.81
2022-09-15T08:59:51.300Z,96751.84
2022-09-15T09:02:23.540Z,96746.59
2022-09-15T09:04:47.292Z,96767.56
2022-09-15T09:07:09.040Z,96765.91
2022-09-15T09:09:34.491Z,96765.72
2022-09-15T09:11:59.728Z,96767.22
2022-09-15T09:14:17.459Z,96767.06
2022-09-15T09:16:42.521Z,96764.16
2022-09-15T09:19:08.138Z,96773.84
2022-09-15T09:21:26.768Z,96772.38
2022-09-15T09:23:37.050Z,96776.56
2022-09-15T09:25:49.835Z,96785.34
2022-09-15T09:27:59.486Z,96789.47
2022-09-15T09:30:17.493Z,96789.00
2022-09-15T09:32:28.022Z,96791.50
2022-09-15T09:34:41.062Z,96786.00
2022-09-15T09:36:49.238Z,96789.34
2022-09-15T09:38:59.139Z,96782.63
2022-09-15T09:41:16.438Z,96782.16
2022-09-15T09:43:27.913Z,96785.53
2022-09-15T09:45:35.892Z,96787.03
2022-09-15T09:47:46.404Z,96787.88
2022-09-15T09:49:54.409Z,96790.25
2022-09-15T09:52:05.549Z,96785.69
2022-09-15T09:54:20.662Z,96784.44
2022-09-15T09:56:31.155Z,96779.50
2022-09-15T09:58:39.199Z,96777.28
2022-09-15T10:00:47.098Z,96773.25
2022-09-15T10:02:56.527Z,96762.22
2022-09-15T10:05:21.207Z,96765.53
2022-09-15T10:07:30.553Z,96757.19
2022-09-15T10:09:40.515Z,96754.41
2022-09-15T10:11:53.832Z,96758.28
2022-09-15T10:14:01.644Z,96754.50
2022-09-15T10:16:10.131Z,96755.28
2022-09-15T10:18:31.236Z,96759.69
2022-09-15T10:20:49.160Z,96766.19
2022-09-15T10:23:07.801Z,96765.81
2022-09-15T10:25:57.653Z,96748.44
2022-09-15T10:28:16.788Z,96769.16
2022-09-15T10:30:27.724Z,96770.06
2022-09-15T10:32:35.589Z,96774.03
2022-09-15T10:34:44.278Z,96768.31
2022-09-15T10:36:55.109Z,96760.44
2022-09-15T10:39:15.919Z,96750.84
2022-09-15T10:41:29.483Z,96758.91
2022-09-15T10:43:51.970Z,96752.22
2022-09-15T10:46:07.180Z,96738.34
2022-09-15T10:48:29.493Z,96751.91
2022-09-15T10:50:50.310Z,96750.00
2022-09-15T10:53:13.647Z,96750.44
2022-09-15T10:55:51.735Z,96749.22
2022-09-15T10:58:16.029Z,96744.72
2022-09-15T11:00:28.044Z,96747.84
2022-09-15T11:02:58.077Z,96751.19
2022-09-15T11:05:27.575Z,96759.97
2022-09-15T11:07:44.932Z,96761.91
2022-09-15T11:09:57.916Z,96760.34
2022-09-15T11:12:20.206Z,96765.22
2022-09-15T11:14:42.011Z,96766.69
2022-09-15T11:17:05.960Z,96778.09
2022-09-15T11:19:29.629Z,96781.59
2022-09-15T11:21:40.242Z,96786.19
2022-09-15T11:23:54.461Z,96788.41
2022-09-15T11:26:08.034Z,96786.50
2022-09-15T11:28:19.611Z,96797.59
2022-09-15T11:30:32.207Z,96804.34
2022-09-15T11:32:52.911Z,96804.03
2022-09-15T11:35:19.248Z,96806.78
2022-09-15T11:37:32.520Z,96801.22
2022-09-15T11:39:45.312Z,96818.13
2022-09-15T11:41:58.088Z,96820.25
2022-09-15T11:44:27.663Z,96825.22
2022-09-15T11:46:47.053Z,96827.34
2022-09-15T11:49:03.952Z,96833.09
2022-09-15T11:51:14.856Z,96829.31
2022-09-15T11:53:32.009Z,96834.22
2022-09-15T11:55:45.695Z,96836.50
2022-09-15T11:58:01.236Z,96834.00
2022-09-15T12:00:14.972Z,96845.59
2022-09-15T12:02:31.569Z,96851.66
2022-09-15T12:04:49.865Z,96851.19
2022-09-15T12:07:02.909Z,96862.28
2022-09-15T12:09:16.246Z,96872.94
2022-09-15T12:11:29.522Z,96877.84
2022-09-15T12:13:38.974Z,96886.19
2022-09-15T12:15:47.328Z,96892.84
2022-09-15T12:18:06.418Z,96892.00
2022-09-15T12:20:34.133Z,96902.19
2022-09-15T12:22:49.994Z,96906.63
2022-09-15T12:25:04.627Z,96911.72
2022-09-15T12:27:20.112Z,96916.81
2022-09-15T12:29:42.235Z,96916.59
2022-09-15T12:31:50.878Z,96930.72
2022-09-15T12:34:26.299Z,96928.22
2022-09-15T12:37:06.678Z,96931.91
2022-09-15T12:39:34.161Z,96943.31
2022-09-15T12:41:50.018Z,96951.16
2022-09-15T12:44:01.286Z,96954.41
2022-09-15T12:46:21.741Z,96961.16
2022-09-15T12:48:34.068Z,96951.94
2022-09-15T12:50:45.704Z,96958.38
2022-09-15T12:53:00.908Z,96961.91
2022-09-15T12:55:09.250Z,96954.94
2022-09-15T12:57:24.571Z,96962.25
2022-09-15T12:59:32.997Z,96956.78
2022-09-15T13:01:52.928Z,96958.03
2022-09-15T13:04:26.560Z,96955.22
2022-09-15T13:06:36.135Z,96953.28
2022-09-15T13:08:55.057Z,96957.75
2022-09-15T13:11:05.912Z,96956.00
2022-09-15T13:13:38.494Z,96961.97
2022-09-15T13:15:49.833Z,96967.03
2022-09-15T13:17:58.869Z,96967.09
2022-09-15T13:20:18.065Z,96975.53
2022-09-15T13:22:31.456Z,96975.81
2022-09-15T13:24:49.067Z,96979.44
2022-09-15T13:26:59.042Z,96975.59
2022-09-15T13:29:08.891Z,96979.91
2022-09-15T13:31:34.536Z,96972.44
2022-09-15T13:40:04.986Z,96982.53
2022-09-15T13:42:31.796Z,96985.81
2022-09-15T13:45:07.408Z,96974.69
2022-09-15T13:47:41.637Z,96976.72
2022-09-15T13:49:58.546Z,96978.06
2022-09-15T13:52:16.457Z,96983.31
2022-09-15T13:54:27.527Z,96982.13
2022-09-15T13:56:42.180Z,96978.59
2022-09-15T13:58:57.543Z,96981.47
2022-09-15T14:01:11.657Z,96984.47
2022-09-15T14:03:25.775Z,96987.16
2022-09-15T14:05:37.073Z,96980.44
2022-09-15T14:07:47.729Z,96986.66
2022-09-15T14:09:58.078Z,96981.78
2022-09-15T14:12:15.111Z,96973.66
2022-09-15T14:14:45.956Z,96989.44
2022-09-15T14:16:53.908Z,96984.28
2022-09-15T14:19:02.312Z,96994.06
2022-09-15T14:21:20.399Z,96997.75
2022-09-15T14:23:28.065Z,96997.09
2022-09-15T14:25:36.586Z,96993.38
2022-09-15T14:27:51.149Z,96997.75
2022-09-15T14:30:00.433Z,96998.38
2022-09-15T14:32:14.350Z,97008.50
2022-09-15T14:34:28.916Z,96997.59
2022-09-15T14:36:38.065Z,97005.53
2022-09-15T14:38:48.431Z,97003.81
2022-09-15T14:40:59.737Z,97002.50
2022-09-15T14:43:35.639Z,97001.31
2022-09-15T14:45:57.825Z,97003.13
2022-09-15T14:48:11.964Z,96996.06
2022-09-15T14:50:22.545Z,96997.75
2022-09-15T14:52:40.794Z,96989.84
2022-09-15T14:54:49.117Z,96985.59
2022-09-15T14:57:02.206Z,96988.75
2022-09-15T14:59:20.513Z,96985.38
2022-09-15T15:01:36.576Z,96994.69
2022-09-15T15:03:52.381Z,97000.34
2022-09-15T15:06:25.415Z,96989.66
2022-09-15T15:08:38.727Z,96989.03
2022-09-15T15:10:46.743Z,96988.16
2022-09-15T15:12:59.007Z,96994.25
2022-09-15T15:15:14.687Z,97004.34
2022-09-15T15:17:35.842Z,97009.53
2022-09-15T15:19:45.843Z,97002.38
2022-09-15T15:21:53.661Z,97005.06
2022-09-15T15:24:02.019Z,97005.91
2022-09-15T15:26:29.979Z,97002.75
2022-09-15T15:28:40.127Z,97006.78
2022-09-15T15:30:50.862Z,97004.09
2022-09-15T15:33:00.806Z,97011.88
2022-09-15T15:35:18.569Z,97013.19
2022-09-15T15:37:31.551Z,97013.91
2022-09-15T15:39:39.458Z,97001.66
2022-09-15T15:44:30.771Z,97006.72
2022-09-15T15:46:53.916Z,97007.19
2022-09-15T15:49:03.790Z,97005.66
2022-09-15T15:51:13.801Z,97009.34
2022-09-15T15:53:21.830Z,97011.38
2022-09-15T15:55:39.625Z,97009.13
2022-09-15T15:57:50.019Z,97009.47
2022-09-15T16:00:00.698Z,97013.66
2022-09-15T16:02:17.006Z,97017.91
2022-09-15T16:04:25.501Z,97021.78
2022-09-15T16:06:33.651Z,97016.91
2022-09-15T16:08:44.902Z,97013.31
2022-09-15T16:10:54.165Z,97019.34
2022-09-15T16:13:02.363Z,97014.84
2022-09-15T16:15:15.315Z,97014.69
2022-09-15T16:17:25.839Z,97006.50
2022-09-15T16:19:33.771Z,97009.66
2022-09-15T16:21:45.498Z,97013.25
2022-09-15T16:23:53.275Z,97014.72
2022-09-15T16:26:04.387Z,97012.16
2022-09-15T16:28:12.963Z,97017.00
2022-09-15T16:30:20.818Z,97016.69
2022-09-15T16:32:32.614Z,97023.13
2022-09-15T16:34:40.379Z,97020.47
2022-09-15T16:36:49.916Z,97018.84
2022-09-15T16:38:57.657Z,97022.84
2022-09-15T16:41:06.525Z,97027.84
2022-09-15T16:43:19.367Z,97025.47
2022-09-15T16:45:35.274Z,97028.03
2022-09-15T16:47:48.827Z,97023.00
2022-09-15T16:49:56.614Z,97022.47
2022-09-15T16:52:05.363Z,97019.53
2022-09-15T16:54:17.893Z,97025.25
2022-09-15T16:56:28.244Z,97025.16
2022-09-15T16:58:36.710Z,97023.09
2022-09-15T17:00:46.130Z,97034.84
2022-09-15T17:02:57.034Z,97031.50
2022-09-15T17:05:04.935Z,97030.84
2022-09-15T17:07:12.711Z,97028.44
2022-09-15T17:09:20.711Z,97031.53
2022-09-15T17:11:29.218Z,97037.16
2022-09-15T17:13:37.714Z,97034.34
2022-09-15T17:15:47.321Z,97040.66
2022-09-15T17:17:58.694Z,97044.75
2022-09-15T17:20:07.223Z,97048.28
2022-09-15T17:22:15.244Z,97046.44
2022-09-15T17:24:24.105Z,97044.16
2022-09-15T17:26:32.083Z,97042.19
2022-09-15T17:28:41.207Z,97050.94
2022-09-15T17:30:49.447Z,97051.63
2022-09-15T17:33:07.856Z,97048.91
2022-09-15T17:35:20.065Z,97051.19
2022-09-15T17:37:28.023Z,97051.50
2022-09-15T17:39:36.470Z,97054.84
2022-09-15T17:42:06.506Z,97051.06
2022-09-15T17:44:14.413Z,97057.94
2022-09-15T17:46:22.556Z,97065.88
2022-09-15T17:48:33.174Z,97056.00
2022-09-15T17:50:42.627Z,97057.41
2022-09-15T17:52:51.747Z,97050.34
2022-09-15T17:54:59.538Z,97049.78
2022-09-15T17:57:07.603Z,97050.19
2022-09-15T17:59:17.121Z,97049.97
2022-09-15T18:01:24.948Z,97059.16
2022-09-15T18:03:36.563Z,97055.78
2022-09-15T18:05:45.894Z,97060.44
2022-09-15T18:07:55.950Z,97061.53
2022-09-15T18:10:04.891Z,97063.91
2022-09-15T18:12:15.590Z,97068.88
2022-09-15T18:14:24.971Z,97070.09
2022-09-15T18:16:34.463Z,97079.16
2022-09-15T18:18:46.012Z,97060.09
2022-09-15T18:20:55.012Z,97071.56
2022-09-15T18:23:03.689Z,97069.28
2022-09-15T18:25:18.923Z,97074.63
2022-09-15T18:27:26.902Z,97079.28
2022-09-15T18:29:35.744Z,97080.84
2022-09-15T18:31:44.951Z,97078.00
2022-09-15T18:33:55.389Z,97072.88
2022-09-15T18:36:03.289Z,97076.69
2022-09-15T18:38:11.615Z,97092.75
2022-09-15T18:40:22.083Z,97088.13
2022-09-15T18:42:32.007Z,97094.16
2022-09-15T18:44:40.123Z,97091.44
2022-09-15T18:46:47.946Z,97097.59
2022-09-15T18:48:59.288Z,97091.47
2022-09-15T18:51:19.663Z,97091.19
2022-09-15T18:53:32.334Z,97098.69
2022-09-15T18:55:42.714Z,97105.22
2022-09-15T18:57:51.167Z,97098.00
2022-09-15T18:59:58.949Z,97101.13
2022-09-15T19:02:06.933Z,97102.84
2022-09-15T19:04:18.515Z,97106.34
2022-09-15T19:06:26.442Z,97107.19
2022-09-15T19:08:34.639Z,97103.56
2022-09-15T19:10:44.218Z,97105.34
2022-09-15T19:12:54.202Z,97099.06
2022-09-15T19:15:01.987Z,97090.63
2022-09-15T19:17:09.734Z,97092.66
2022-09-15T19:19:20.521Z,97099.41
2022-09-15T19:21:28.542Z,97097.00
2022-09-15T19:23:36.409Z,97099.44
2022-09-15T19:25:44.457Z,97105.94
2022-09-15T19:27:54.465Z,97102.00
2022-09-15T19:30:02.829Z,97109.09
2022-09-15T19:32:13.132Z,97109.09
2022-09-15T19:34:23.762Z,97113.72
2022-09-15T19:36:31.694Z,97106.22
2022-09-15T19:38:39.638Z,97113.72
2022-09-15T19:40:47.400Z,97105.41
2022-09-15T19:42:55.288Z,97105.53
2022-09-15T19:45:03.208Z,97110.78
2022-09-15T19:47:11.094Z,97116.41
2022-09-15T19:49:19.310Z,97110.88
2022-09-15T19:51:31.481Z,97115.56
2022-09-15T19:53:40.379Z,97113.88
2022-09-15T19:55:52.240Z,97115.84
2022-09-15T19:57:59.999Z,97117.94
2022-09-15T20:00:09.845Z,97111.31
2022-09-15T20:02:17.681Z,97110.03
2022-09-15T20:04:25.531Z,97110.47
2022-09-15T20:06:36.112Z,97115.69
2022-09-15T20:08:45.910Z,97117.50
2022-09-15T20:10:54.321Z,97114.66
2022-09-15T20:13:01.978Z,97114.34
2022-09-15T20:15:12.648Z,97111.66
2022-09-15T20:17:21.852Z,97106.03
2022-09-15T20:19:29.949Z,97112.44
2022-09-15T20:21:50.706Z,97107.78
2022-09-15T20:23:59.594Z,97106.34
2022-09-15T20:26:11.913Z,97107.47
2022-09-15T20:28:20.055Z,97101.91
2022-09-15T20:30:27.838Z,97105.28
2022-09-15T20:32:36.800Z,97108.91
2022-09-15T20:34:46.970Z,97111.31
2022-09-15T20:36:58.993Z,97105.97
2022-09-15T20:39:08.911Z,97110.03
2022-09-15T20:41:18.455Z,97110.56
2022-09-15T20:43:27.009Z,97107.91
2022-09-15T20:45:37.180Z,97109.19
2022-09-15T20:47:45.476Z,97107.50
2022-09-15T20:49:53.213Z,97116.47
2022-09-15T20:52:03.834Z,97109.84
2022-09-15T20:54:12.656Z,97105.34
2022-09-15T20:56:24.930Z,97110.50
2022-09-15T20:58:35.899Z,97112.91
2022-09-15T21:00:43.725Z,97110.91
2022-09-15T21:02:54.670Z,97108.50
2022-09-15T21:05:02.772Z,97102.31
2022-09-15T21:07:13.326Z,97106.84
2022-09-15T21:09:21.476Z,97114.13
2022-09-15T21:11:31.096Z,97111.25
2022-09-15T21:13:40.173Z,97116.94
2022-09-15T21:15:57.901Z,97115.81
2022-09-15T21:18:05.666Z,97125.81
2022-09-15T21:20:14.138Z,97115.81
2022-09-15T21:22:24.535Z,97117.41
2022-09-15T21:24:32.233Z,97118.41
2022-09-15T21:27:03.809Z,97120.38
2022-09-15T21:29:12.533Z,97121.41
2022-09-15T21:31:21.772Z,97130.13
2022-09-15T21:33:29.992Z,97128.47
2022-09-15T21:35:37.761Z,97119.72
2022-09-15T21:37:48.587Z,97129.75
2022-09-15T21:39:57.106Z,97131.63
2022-09-15T21:42:05.357Z,97127.53
2022-09-15T21:44:14.540Z,97133.59
2022-09-15T21:46:23.356Z,97128.50
2022-09-15T21:48:32.738Z,97125.78
2022-09-15T21:50:40.961Z,97133.66
2022-09-15T21:52:51.377Z,97128.91
2022-09-15T21:54:59.487Z,97134.56
2022-09-15T21:57:11.900Z,97126.88
2022-09-15T21:59:20.125Z,97119.59
2022-09-15T22:01:30.251Z,97123.28
2022-09-15T22:03:42.252Z,97123.88
2022-09-15T22:05:51.877Z,97124.34
2022-09-15T22:08:05.004Z,97122.50
2022-09-15T22:10:24.117Z,97126.69
2022-09-15T22:12:32.609Z,97123.09
2022-09-15T22:14:40.786Z,97123.78
2022-09-15T22:16:49.055Z,97119.50
2022-09-15T22:19:00.495Z,97115.25
2022-09-15T22:21:11.559Z,97114.19
2022-09-15T22:23:22.582Z,97118.31
2022-09-15T22:25:31.633Z,97121.59
2022-09-15T22:27:40.033Z,97116.78
2022-09-15T22:29:48.122Z,97114.72
2022-09-15T22:31:58.661Z,97105.75
2022-09-15T22:34:07.325Z,97108.88
2022-09-15T22:36:16.290Z,97116.50
2022-09-15T22:38:28.549Z,97118.69
2022-09-15T22:40:40.499Z,97109.63
2022-09-15T22:42:48.981Z,97114.47
2022-09-15T22:44:57.110Z,97117.63
2022-09-15T22:47:07.921Z,97117.25
2022-09-15T22:49:16.054Z,97124.88
2022-09-15T22:51:24.308Z,97112.91
2022-09-15T22:53:37.345Z,97117.63
2022-09-15T22:55:46.712Z,97117.00
2022-09-15T22:57:55.270Z,97123.31
2022-09-15T23:00:03.371Z,97115.56
2022-09-15T23:02:11.944Z,97110.09
2022-09-15T23:04:28.184Z,97116.88
2022-09-15T23:06:36.996Z,97110.94
2022-09-15T23:08:48.762Z,97110.09
2022-09-15T23:11:03.189Z,97109.81
2022-09-15T23:13:11.990Z,97115.16
2022-09-15T23:15:20.025Z,97111.91
2022-09-15T23:17:28.015Z,97110.66
2022-09-15T23:19:35.783Z,97115.66
2022-09-15T23:21:43.755Z,97104.94
2022-09-15T23:23:57.006Z,97109.34
2022-09-15T23:26:05.419Z,97109.25
2022-09-15T23:28:13.240Z,97106.69
2022-09-15T23:30:21.301Z,97109.47
2022-09-15T23:32:31.945Z,97107.03
2022-09-15T23:34:39.798Z,97099.03
2022-09-15T23:36:47.632Z,97108.63
2022-09-15T23:38:58.423Z,97104.84
2022-09-15T23:41:06.658Z,97107.41
2022-09-15T23:43:16.586Z,97108.06
2022-09-15T23:45:24.903Z,97106.38
2022-09-15T23:47:35.042Z,97113.50
2022-09-15T23:49:42.945Z,97112.66
2022-09-15T23:51:51.352Z,97123.09
2022-09-15T23:54:02.299Z,97114.81
2022-09-15T23:56:10.414Z,97114.69
2022-09-15T23:58:18.983Z,97112.59
